Time;durP1;ratioP1;P1;durP2;ratioP2;P2;SDS_P1;SDS_P2;PMS_P1;PMS_P2;Temp;Humidity;BMP_temperature;BMP_pressure;BME280_temperature;BME280_humidity;BME280_pressure;Samples;Min_cycle;Max_cycle;Signal;HPM_P1;HPM_P2
2021/08/30 00:06:11;;;;;;;1999.90;999.90;;;16.70;99.90;;;;;;5036417;28;20405;-65
2021/08/30 00:20:12;;;;;;;1999.90;999.90;;;16.60;99.90;;;;;;4884330;29;20565;-65
2021/08/30 00:23:14;;;;;;;1999.90;999.90;;;16.60;99.90;;;;;;4849460;29;20466;-65
2021/08/30 00:25:49;;;;;;;1999.90;999.90;;;16.70;99.90;;;;;;4893542;29;20419;-67
2021/08/30 00:28:35;;;;;;;1999.90;999.90;;;16.70;99.90;;;;;;4977291;28;20409;-67
2021/08/30 00:31:00;;;;;;;1999.90;999.90;;;16.80;99.90;;;;;;4983705;28;20418;-68
2021/08/30 00:33:26;;;;;;;1999.90;999.90;;;16.80;99.90;;;;;;5050211;28;20455;-65
2021/08/30 00:35:52;;;;;;;1999.90;999.90;;;16.80;99.90;;;;;;5039327;28;20181;-65
2021/08/30 00:38:17;;;;;;;1999.90;999.90;;;16.80;99.90;;;;;;5055896;28;20203;-66
2021/08/30 00:40:43;;;;;;;1999.90;999.90;;;16.80;99.90;;;;;;5055295;28;20187;-70
2021/08/30 00:43:09;;;;;;;1999.90;999.90;;;16.80;99.90;;;;;;5056412;28;20183;-65
2021/08/30 00:45:35;;;;;;;1999.90;999.90;;;16.80;99.90;;;;;;5037451;28;20469;-67
2021/08/30 00:48:01;;;;;;;1999.90;999.90;;;16.80;99.90;;;;;;5038198;28;20449;-70
2021/08/30 00:50:28;;;;;;;1999.90;999.90;;;16.80;99.90;;;;;;5056094;28;20413;-68
2021/08/30 00:52:54;;;;;;;1999.90;999.90;;;16.70;99.90;;;;;;5038496;28;20789;-69
2021/08/30 00:55:19;;;;;;;1999.90;999.90;;;16.70;99.90;;;;;;5034671;28;20407;-70
2021/08/30 00:57:45;;;;;;;1999.90;999.90;;;16.70;99.90;;;;;;5034889;28;20420;-69
2021/08/30 01:00:11;;;;;;;1999.90;999.90;;;16.70;99.90;;;;;;5034806;28;20208;-69
2021/08/30 01:02:41;;;;;;;1999.90;999.90;;;16.70;99.90;;;;;;5049144;28;20210;-69
2021/08/30 01:05:09;;;;;;;1999.90;999.90;;;16.70;99.90;;;;;;5040857;28;20450;-70
2021/08/30 01:08:10;;;;;;;1999.90;999.90;;;16.70;99.90;;;;;;5057737;28;20432;-67
2021/08/30 01:10:53;;;;;;;1999.90;999.90;;;16.70;99.90;;;;;;5034718;28;20418;-68
2021/08/30 01:13:38;;;;;;;1999.90;999.90;;;16.70;99.90;;;;;;5034634;28;20466;-68
2021/08/30 01:16:07;;;;;;;1999.90;999.90;;;16.70;99.90;;;;;;5034316;28;20922;-68
2021/08/30 01:18:34;;;;;;;1999.90;999.90;;;16.70;99.90;;;;;;5034255;28;20461;-69
2021/08/30 01:21:18;;;;;;;1999.90;999.90;;;16.70;99.90;;;;;;5034554;28;20401;-69
2021/08/30 01:23:52;;;;;;;1999.90;999.90;;;16.60;99.90;;;;;;5034257;28;20397;-69
2021/08/30 01:26:18;;;;;;;1999.90;999.90;;;16.60;99.90;;;;;;5034330;28;20398;-69
2021/08/30 01:28:58;;;;;;;1999.90;999.90;;;16.60;99.90;;;;;;5034548;28;20416;-68
2021/08/30 01:31:43;;;;;;;1999.90;999.90;;;16.60;99.90;;;;;;5034556;28;20403;-69
2021/08/30 01:34:09;;;;;;;1999.90;999.90;;;16.60;99.90;;;;;;5033997;28;20421;-69
2021/08/30 01:36:36;;;;;;;1999.90;999.90;;;16.60;99.90;;;;;;5034132;28;20423;-68
2021/08/30 01:39:03;;;;;;;1999.90;999.90;;;16.60;99.90;;;;;;5034075;28;20240;-68
2021/08/30 01:41:30;;;;;;;1999.90;999.90;;;16.50;99.90;;;;;;5034095;28;20903;-68
2021/08/30 01:43:56;;;;;;;1999.90;999.90;;;16.60;99.90;;;;;;5033867;28;20467;-67
2021/08/30 01:46:24;;;;;;;1999.90;999.90;;;16.50;99.90;;;;;;5034291;28;20933;-68
2021/08/30 01:48:50;;;;;;;1999.90;999.90;;;16.50;99.90;;;;;;5034301;28;20999;-67
2021/08/30 01:51:23;;;;;;;1999.90;999.90;;;16.50;99.90;;;;;;5034015;28;20438;-67
2021/08/30 01:53:51;;;;;;;1999.90;999.90;;;16.50;99.90;;;;;;5033700;28;20409;-69
2021/08/30 01:56:18;;;;;;;1999.90;999.90;;;16.50;99.90;;;;;;5033673;28;20951;-70
2021/08/30 02:01:32;;;;;;;1999.90;999.90;;;16.50;99.90;;;;;;5033727;28;20400;-67
2021/08/30 02:03:57;;;;;;;1999.90;999.90;;;16.50;99.90;;;;;;5032709;28;20405;-68
2021/08/30 02:06:23;;;;;;;1999.90;999.90;;;16.60;99.90;;;;;;5033604;28;20804;-67
2021/08/30 02:08:49;;;;;;;1999.90;999.90;;;16.50;99.90;;;;;;5033594;28;20166;-67
2021/08/30 02:11:21;;;;;;;1999.90;999.90;;;16.50;99.90;;;;;;5033649;28;20259;-67
2021/08/30 02:13:46;;;;;;;1999.90;999.90;;;16.50;99.90;;;;;;5033409;28;20403;-67
2021/08/30 02:16:12;;;;;;;1999.90;999.90;;;16.50;99.90;;;;;;5033318;28;20452;-67
2021/08/30 02:18:43;;;;;;;1999.90;999.90;;;16.50;99.90;;;;;;5033297;28;20462;-67
2021/08/30 02:21:37;;;;;;;1999.90;999.90;;;16.50;99.90;;;;;;5033353;28;20402;-67
2021/08/30 02:24:07;;;;;;;1999.90;999.90;;;16.50;99.90;;;;;;5033264;28;20430;-67
2021/08/30 02:26:48;;;;;;;1999.90;999.90;;;16.50;99.90;;;;;;5033341;28;20420;-67
2021/08/30 02:29:18;;;;;;;1999.90;999.90;;;16.40;99.90;;;;;;5033319;28;20877;-70
2021/08/30 02:31:48;;;;;;;1999.90;999.90;;;16.40;99.90;;;;;;5039049;28;20570;-70
2021/08/30 02:34:18;;;;;;;1999.90;999.90;;;16.40;99.90;;;;;;5048453;28;20419;-70
2021/08/30 02:36:44;;;;;;;1999.90;999.90;;;16.40;99.90;;;;;;5048713;28;20427;-70
2021/08/30 02:39:11;;;;;;;1999.90;999.90;;;16.40;99.90;;;;;;5045684;28;20471;-69
2021/08/30 02:41:37;;;;;;;1999.90;999.90;;;16.40;99.90;;;;;;5044322;28;20407;-70
2021/08/30 02:44:04;;;;;;;1999.90;999.90;;;16.40;99.90;;;;;;5044247;28;20844;-70
2021/08/30 02:46:31;;;;;;;1999.90;999.90;;;16.40;99.90;;;;;;5036125;28;20881;-69
2021/08/30 02:48:57;;;;;;;1999.90;999.90;;;16.40;99.90;;;;;;5032807;28;20763;-69
2021/08/30 02:51:25;;;;;;;1999.90;999.90;;;16.40;99.90;;;;;;5032993;28;20415;-69
2021/08/30 02:53:51;;;;;;;1999.90;999.90;;;16.40;99.90;;;;;;5032550;28;20951;-69
2021/08/30 02:56:18;;;;;;;1999.90;999.90;;;16.40;99.90;;;;;;5032637;28;20468;-68
2021/08/30 02:58:44;;;;;;;1999.90;999.90;;;16.40;99.90;;;;;;5032588;28;20524;-68
2021/08/30 03:01:10;;;;;;;1999.90;999.90;;;16.50;99.90;;;;;;5032612;28;20436;-68
2021/08/30 03:03:36;;;;;;;1999.90;999.90;;;16.50;99.90;;;;;;5032611;28;20246;-68
2021/08/30 03:06:02;;;;;;;1999.90;999.90;;;16.50;99.90;;;;;;5032240;28;20402;-68
2021/08/30 03:08:28;;;;;;;1999.90;999.90;;;16.50;99.90;;;;;;5032518;28;20429;-68
2021/08/30 03:10:54;;;;;;;1999.90;999.90;;;16.40;99.90;;;;;;5032477;28;20176;-68
2021/08/30 03:13:20;;;;;;;1999.90;999.90;;;16.40;99.90;;;;;;5032335;28;20172;-68
2021/08/30 03:15:49;;;;;;;1999.90;999.90;;;16.40;99.90;;;;;;5032044;28;20503;-68
2021/08/30 03:18:17;;;;;;;1999.90;999.90;;;16.40;99.90;;;;;;5032107;28;20446;-68
2021/08/30 03:20:45;;;;;;;1999.90;999.90;;;16.40;99.90;;;;;;5032299;28;20471;-68
2021/08/30 03:23:11;;;;;;;1999.90;999.90;;;16.40;99.90;;;;;;5032298;28;20498;-68
2021/08/30 03:25:37;;;;;;;1999.90;999.90;;;16.30;99.90;;;;;;5031993;28;20918;-68
2021/08/30 03:28:08;;;;;;;1999.90;999.90;;;16.40;99.90;;;;;;5032163;28;20466;-68
2021/08/30 03:30:34;;;;;;;1999.90;999.90;;;16.30;99.90;;;;;;5032166;28;20492;-68
2021/08/30 03:33:01;;;;;;;1999.90;999.90;;;16.30;99.90;;;;;;5032123;28;20514;-68
2021/08/30 03:35:29;;;;;;;1999.90;999.90;;;16.30;99.90;;;;;;5031861;28;20417;-68
2021/08/30 03:37:56;;;;;;;1999.90;999.90;;;16.30;99.90;;;;;;5032057;28;20422;-68
2021/08/30 03:40:23;;;;;;;1999.90;999.90;;;16.30;99.90;;;;;;5035345;28;20937;-69
2021/08/30 03:42:49;;;;;;;1999.90;999.90;;;16.30;99.90;;;;;;5039395;28;20407;-70
2021/08/30 03:45:15;;;;;;;1999.90;999.90;;;16.30;99.90;;;;;;5037096;28;20406;-70
2021/08/30 03:47:42;;;;;;;1999.90;999.90;;;16.30;99.90;;;;;;5035296;28;20486;-67
2021/08/30 03:50:09;;;;;;;1999.90;999.90;;;16.30;99.90;;;;;;5031944;28;20411;-70
2021/08/30 03:52:37;;;;;;;1999.90;999.90;;;16.30;99.90;;;;;;5031920;28;20784;-67
2021/08/30 03:55:05;;;;;;;1999.90;999.90;;;16.20;99.90;;;;;;5031612;28;20432;-69
2021/08/30 03:57:31;;;;;;;1999.90;999.90;;;16.20;99.90;;;;;;5031762;28;21091;-68
2021/08/30 03:59:58;;;;;;;1999.90;999.90;;;16.10;99.90;;;;;;5031735;28;20453;-69
2021/08/30 04:02:28;;;;;;;1999.90;999.90;;;16.10;99.90;;;;;;5032130;28;20400;-70
2021/08/30 04:04:54;;;;;;;1999.90;999.90;;;16.10;99.90;;;;;;5037433;28;20483;-70
2021/08/30 04:07:20;;;;;;;1999.90;999.90;;;16.10;99.90;;;;;;5037608;28;20432;-70
2021/08/30 04:09:50;;;;;;;1999.90;999.90;;;16.10;99.90;;;;;;5037341;28;20471;-69
2021/08/30 04:12:15;;;;;;;1999.90;999.90;;;16.10;99.90;;;;;;5038657;28;20412;-70
2021/08/30 04:14:41;;;;;;;1999.90;999.90;;;16.10;99.90;;;;;;5038111;28;20486;-70
2021/08/30 04:17:07;;;;;;;1999.90;999.90;;;16.10;99.90;;;;;;5039025;28;20202;-69
2021/08/30 04:19:32;;;;;;;1999.90;999.90;;;16.10;99.90;;;;;;5041525;28;20204;-68
2021/08/30 04:21:58;;;;;;;1999.90;999.90;;;16.10;99.90;;;;;;5016698;28;20745;-69
2021/08/30 04:24:23;;;;;;;1999.90;999.90;;;16.10;99.90;;;;;;5031538;28;20171;-68
2021/08/30 04:26:49;;;;;;;1999.90;999.90;;;16.20;99.90;;;;;;5034236;28;20588;-69
2021/08/30 04:29:14;;;;;;;1999.90;999.90;;;16.10;99.90;;;;;;5035553;28;20245;-69
2021/08/30 04:31:40;;;;;;;1999.90;999.90;;;16.20;99.90;;;;;;5035403;28;20181;-68
2021/08/30 04:34:06;;;;;;;1999.90;999.90;;;16.20;99.90;;;;;;5035160;28;20177;-68
2021/08/30 04:36:31;;;;;;;1999.90;999.90;;;16.20;99.90;;;;;;5035262;28;20607;-68
2021/08/30 04:38:57;;;;;;;1999.90;999.90;;;16.20;99.90;;;;;;5035211;28;20203;-68
2021/08/30 04:41:23;;;;;;;1999.90;999.90;;;16.20;99.90;;;;;;5035286;28;20213;-68
2021/08/30 04:43:51;;;;;;;1999.90;999.90;;;16.20;99.90;;;;;;5034931;28;20175;-68
2021/08/30 04:46:16;;;;;;;1999.90;999.90;;;16.20;99.90;;;;;;5035110;28;20607;-68
2021/08/30 04:48:42;;;;;;;1999.90;999.90;;;16.10;99.90;;;;;;5035131;28;20506;-68
2021/08/30 04:51:07;;;;;;;1999.90;999.90;;;16.10;99.90;;;;;;5035040;28;20207;-68
2021/08/30 04:53:33;;;;;;;1999.90;999.90;;;16.10;99.90;;;;;;5035049;28;20246;-68
2021/08/30 04:55:59;;;;;;;1999.90;999.90;;;16.10;99.90;;;;;;5034746;28;20668;-68
2021/08/30 04:58:24;;;;;;;1999.90;999.90;;;16.20;99.90;;;;;;5034875;28;20289;-68
2021/08/30 05:00:50;;;;;;;1999.90;999.90;;;16.20;99.90;;;;;;5034973;28;20171;-68
2021/08/30 05:03:16;;;;;;;1999.90;999.90;;;16.20;99.90;;;;;;5034957;28;20637;-68
2021/08/30 05:05:42;;;;;;;1999.90;999.90;;;16.20;99.90;;;;;;5034489;28;20468;-68
2021/08/30 05:08:07;;;;;;;1999.90;999.90;;;16.30;99.90;;;;;;5034675;28;20192;-68
2021/08/30 05:10:33;;;;;;;1999.90;999.90;;;16.30;99.90;;;;;;5034775;28;20169;-68
2021/08/30 05:12:59;;;;;;;1999.90;999.90;;;16.30;99.90;;;;;;5034659;28;20174;-68
2021/08/30 05:15:25;;;;;;;1999.90;999.90;;;16.30;99.90;;;;;;5034336;28;20176;-68
2021/08/30 05:17:50;;;;;;;1999.90;999.90;;;16.30;99.90;;;;;;5034399;28;20452;-68
2021/08/30 05:20:16;;;;;;;1999.90;999.90;;;16.30;99.90;;;;;;5034487;28;20212;-68
2021/08/30 05:22:42;;;;;;;1999.90;999.90;;;16.30;99.90;;;;;;5034488;28;20170;-68
2021/08/30 05:25:08;;;;;;;1999.90;999.90;;;16.20;99.90;;;;;;5034240;28;20160;-68
2021/08/30 05:27:33;;;;;;;1999.90;999.90;;;16.20;99.90;;;;;;5034458;28;20194;-68
2021/08/30 05:29:59;;;;;;;1999.90;999.90;;;16.20;99.90;;;;;;5034390;28;20414;-68
2021/08/30 05:32:25;;;;;;;1999.90;999.90;;;16.20;99.90;;;;;;5034389;28;20248;-68
2021/08/30 05:34:50;;;;;;;1999.90;999.90;;;16.20;99.90;;;;;;5033950;28;20175;-68
2021/08/30 05:37:16;;;;;;;1999.90;999.90;;;16.20;99.90;;;;;;5032877;28;20193;-68
2021/08/30 05:39:42;;;;;;;1999.90;999.90;;;16.20;99.90;;;;;;5034119;28;20199;-68
2021/08/30 05:42:07;;;;;;;1999.90;999.90;;;16.20;99.90;;;;;;5042931;28;20241;-70
2021/08/30 05:44:33;;;;;;;1999.90;999.90;;;16.20;99.90;;;;;;5044331;28;20169;-69
2021/08/30 05:46:58;;;;;;;1999.90;999.90;;;16.10;99.90;;;;;;5046232;28;20191;-68
2021/08/30 05:49:24;;;;;;;1999.90;999.90;;;16.10;99.90;;;;;;5046619;28;20235;-70
2021/08/30 05:51:50;;;;;;;1999.90;999.90;;;16.10;99.90;;;;;;5044598;28;20169;-70
2021/08/30 05:54:15;;;;;;;1999.90;999.90;;;16.10;99.90;;;;;;5046460;28;20179;-70
2021/08/30 05:56:41;;;;;;;1999.90;999.90;;;16.10;99.90;;;;;;5027876;28;20200;-70
2021/08/30 05:59:07;;;;;;;1999.90;999.90;;;16.10;99.90;;;;;;5045901;28;20200;-68
2021/08/30 06:01:35;;;;;;;1999.90;999.90;;;16.10;99.90;;;;;;5044420;28;20172;-70
2021/08/30 06:04:02;;;;;;;1999.90;999.90;;;16.20;99.90;;;;;;5039001;28;20175;-68
2021/08/30 06:06:27;;;;;;;1999.90;999.90;;;16.20;99.90;;;;;;5033566;28;20468;-67
2021/08/30 06:08:53;;;;;;;1999.90;999.90;;;16.20;99.90;;;;;;5033634;28;20454;-70
2021/08/30 06:11:18;;;;;;;1999.90;999.90;;;16.30;99.90;;;;;;5033638;28;20700;-67
2021/08/30 06:13:44;;;;;;;1999.90;999.90;;;16.30;99.90;;;;;;5033393;28;20183;-67
2021/08/30 06:16:09;;;;;;;1999.90;999.90;;;16.30;99.90;;;;;;5033321;28;20630;-67
2021/08/30 06:18:35;;;;;;;1999.90;999.90;;;16.40;99.90;;;;;;5074538;22;20280;-67
2021/08/30 06:21:00;;;;;;;1999.90;999.90;;;16.40;99.90;;;;;;5033393;28;20240;-68
2021/08/30 06:23:28;;;;;;;1999.90;999.90;;;16.50;99.90;;;;;;5033436;28;20166;-68
2021/08/30 06:25:53;;;;;;;1999.90;999.90;;;16.50;99.90;;;;;;5033181;28;20262;-68
2021/08/30 06:28:19;;;;;;;1999.90;999.90;;;16.60;99.90;;;;;;5033419;28;20536;-68
2021/08/30 06:30:44;;;;;;;1999.90;999.90;;;16.60;99.90;;;;;;5033341;28;20170;-68
2021/08/30 06:33:10;;;;;;;1999.90;999.90;;;16.70;99.90;;;;;;5033233;28;20172;-68
2021/08/30 06:35:38;;;;;;;1999.90;999.90;;;16.70;99.90;;;;;;5032971;28;20272;-68
2021/08/30 06:38:04;;;;;;;1999.90;999.90;;;16.70;99.90;;;;;;5033254;28;20231;-68
2021/08/30 06:40:29;;;;;;;1999.90;999.90;;;16.80;99.90;;;;;;5033076;28;20900;-68
2021/08/30 06:42:55;;;;;;;1999.90;999.90;;;16.80;99.90;;;;;;5033082;28;20797;-68
2021/08/30 06:45:22;;;;;;;1999.90;999.90;;;16.90;99.90;;;;;;5032788;28;20169;-68
2021/08/30 06:47:49;;;;;;;1999.90;999.90;;;17.00;99.90;;;;;;5032773;28;20236;-68
2021/08/30 06:50:15;;;;;;;1999.90;999.90;;;17.00;99.90;;;;;;5032489;28;20403;-68
2021/08/30 06:52:40;;;;;;;1999.90;999.90;;;17.10;99.90;;;;;;5032834;28;20448;-68
2021/08/30 06:55:06;;;;;;;1999.90;999.90;;;17.10;99.90;;;;;;5032562;28;20654;-68
2021/08/30 06:57:35;;;;;;;1999.90;999.90;;;17.30;99.90;;;;;;5032887;28;20199;-68
2021/08/30 07:00:01;;;;;;;1999.90;999.90;;;17.30;99.90;;;;;;5032812;28;20809;-68
2021/08/30 07:02:27;;;;;;;1999.90;999.90;;;17.30;99.90;;;;;;5032832;28;20902;-68
2021/08/30 07:04:52;;;;;;;1999.90;999.90;;;17.30;99.90;;;;;;5032462;28;20492;-67
2021/08/30 07:07:18;;;;;;;1999.90;999.90;;;17.30;99.90;;;;;;5032590;28;20640;-68
2021/08/30 07:09:43;;;;;;;1999.90;999.90;;;17.30;99.90;;;;;;5032762;28;20250;-68
2021/08/30 07:12:09;;;;;;;1999.90;999.90;;;17.30;99.90;;;;;;5032591;28;20168;-68
2021/08/30 07:14:34;;;;;;;1999.90;999.90;;;17.30;99.90;;;;;;5032311;28;20178;-68
2021/08/30 07:17:00;;;;;;;1999.90;999.90;;;17.40;99.90;;;;;;5032532;28;20641;-68
2021/08/30 07:19:26;;;;;;;1999.90;999.90;;;17.40;99.90;;;;;;5032296;28;20268;-68
2021/08/30 07:21:51;;;;;;;1999.90;999.90;;;17.50;99.90;;;;;;5032227;28;20173;-69
2021/08/30 07:24:17;;;;;;;1999.90;999.90;;;17.50;99.90;;;;;;5031643;28;20159;-68
2021/08/30 07:26:43;;;;;;;1999.90;999.90;;;17.50;99.90;;;;;;5032330;28;20168;-68
2021/08/30 07:29:08;;;;;;;1999.90;999.90;;;17.50;99.90;;;;;;5032240;28;20188;-68
2021/08/30 07:31:34;;;;;;;1999.90;999.90;;;17.50;99.90;;;;;;5032235;28;20172;-68
2021/08/30 07:33:59;;;;;;;1999.90;999.90;;;17.60;99.90;;;;;;5031898;28;20228;-68
2021/08/30 07:36:26;;;;;;;1999.90;999.90;;;17.60;99.90;;;;;;5032206;28;20631;-68
2021/08/30 07:38:52;;;;;;;1999.90;999.90;;;17.70;99.90;;;;;;5031954;28;20626;-68
2021/08/30 07:41:17;;;;;;;1999.90;999.90;;;17.70;99.90;;;;;;5032088;28;20501;-68
2021/08/30 07:43:43;;;;;;;1999.90;999.90;;;17.90;99.90;;;;;;5031958;28;20171;-67
2021/08/30 07:46:09;;;;;;;1999.90;999.90;;;18.00;99.90;;;;;;5031941;28;20497;-68
2021/08/30 07:48:34;;;;;;;1999.90;999.90;;;18.10;99.90;;;;;;5031997;28;20208;-68
2021/08/30 07:51:00;;;;;;;1999.90;999.90;;;18.10;99.90;;;;;;5032089;28;20252;-68
2021/08/30 07:53:29;;;;;;;1999.90;999.90;;;18.00;99.90;;;;;;5031234;28;20512;-68
2021/08/30 07:55:56;;;;;;;1999.90;999.90;;;17.90;99.90;;;;;;5031796;28;20174;-68
2021/08/30 07:58:23;;;;;;;1999.90;999.90;;;18.00;99.90;;;;;;5031574;28;20433;-68
2021/08/30 08:00:48;;;;;;;1999.90;999.90;;;18.10;99.90;;;;;;5033037;28;20452;-68
2021/08/30 08:03:14;;;;;;;1999.90;999.90;;;18.10;99.90;;;;;;5033578;28;21046;-68
2021/08/30 08:05:40;;;;;;;1999.90;999.90;;;18.20;99.90;;;;;;5035363;28;20653;-68
2021/08/30 08:08:06;;;;;;;1999.90;999.90;;;18.20;99.90;;;;;;5035507;28;20421;-68
2021/08/30 08:10:32;;;;;;;1999.90;999.90;;;18.00;99.90;;;;;;5035366;28;20174;-68
2021/08/30 08:12:58;;;;;;;1999.90;999.90;;;18.00;99.90;;;;;;5035621;28;20644;-68
2021/08/30 08:15:24;;;;;;;1999.90;999.90;;;18.10;99.90;;;;;;5035060;28;20453;-68
2021/08/30 08:17:49;;;;;;;1999.90;999.90;;;18.10;99.90;;;;;;5034778;28;20204;-68
2021/08/30 08:20:15;;;;;;;1999.90;999.90;;;18.20;99.90;;;;;;5035396;28;20199;-68
2021/08/30 08:22:42;;;;;;;1999.90;999.90;;;18.30;99.90;;;;;;5035405;28;20168;-68
2021/08/30 08:25:09;;;;;;;1999.90;999.90;;;18.20;99.90;;;;;;5034671;28;20188;-69
2021/08/30 08:27:36;;;;;;;1999.90;999.90;;;18.20;99.90;;;;;;5033505;28;20935;-68
2021/08/30 08:30:04;;;;;;;1999.90;999.90;;;18.30;99.90;;;;;;5034419;28;21082;-66
2021/08/30 08:32:29;;;;;;;1999.90;999.90;;;18.30;99.90;;;;;;5034155;28;20409;-69
2021/08/30 08:34:55;;;;;;;1999.90;999.90;;;18.40;99.90;;;;;;5034161;28;20925;-67
2021/08/30 08:37:21;;;;;;;1999.90;999.90;;;18.40;99.90;;;;;;5034545;28;20183;-69
2021/08/30 08:39:46;;;;;;;1999.90;999.90;;;18.30;99.90;;;;;;5035095;28;20299;-70
2021/08/30 08:42:12;;;;;;;1999.90;999.90;;;18.30;99.90;;;;;;5034329;28;20181;-70
2021/08/30 08:44:38;;;;;;;1999.90;999.90;;;18.30;99.90;;;;;;5032640;28;20179;-70
2021/08/30 08:47:04;;;;;;;1999.90;999.90;;;18.30;99.90;;;;;;5033787;28;20194;-69
2021/08/30 08:49:29;;;;;;;1999.90;999.90;;;18.10;99.90;;;;;;5033636;28;20441;-69
2021/08/30 08:51:55;;;;;;;1999.90;999.90;;;18.00;99.90;;;;;;5034183;28;20260;-69
2021/08/30 08:54:21;;;;;;;1999.90;999.90;;;18.00;99.90;;;;;;5033675;28;20206;-69
2021/08/30 08:56:46;;;;;;;1999.90;999.90;;;17.90;99.90;;;;;;5033605;28;20640;-69
2021/08/30 08:59:12;;;;;;;1999.90;999.90;;;17.90;99.90;;;;;;5034016;28;20677;-70
2021/08/30 09:01:40;;;;;;;1999.90;999.90;;;17.90;99.90;;;;;;5033984;28;20579;-69
2021/08/30 09:04:06;;;;;;;1999.90;999.90;;;18.00;99.90;;;;;;5032875;28;20648;-69
2021/08/30 09:06:47;;;;;;;1999.90;999.90;;;18.20;99.90;;;;;;5033965;28;20481;-69
2021/08/30 09:09:18;;;;;;;1999.90;999.90;;;18.20;99.90;;;;;;5034264;28;20429;-69
2021/08/30 09:11:55;;;;;;;1999.90;999.90;;;18.30;99.90;;;;;;5033278;28;20796;-70
2021/08/30 09:14:25;;;;;;;1999.90;999.90;;;18.30;99.90;;;;;;5033712;28;20491;-69
2021/08/30 09:17:08;;;;;;;1999.90;999.90;;;18.50;99.90;;;;;;5033248;28;20402;-69
2021/08/30 09:19:34;;;;;;;1999.90;999.90;;;18.60;99.90;;;;;;5033388;28;20469;-70
2021/08/30 09:22:02;;;;;;;1999.90;999.90;;;18.60;99.90;;;;;;5033902;28;20412;-69
2021/08/30 09:24:29;;;;;;;1999.90;999.90;;;18.50;99.90;;;;;;5032595;28;20411;-69
2021/08/30 09:27:06;;;;;;;1999.90;999.90;;;18.50;99.90;;;;;;5033865;28;20903;-69
2021/08/30 09:29:35;;;;;;;1999.90;999.90;;;18.40;99.90;;;;;;5033629;28;20428;-70
2021/08/30 09:32:08;;;;;;;1999.90;999.90;;;18.20;99.90;;;;;;5033342;28;20474;-70
2021/08/30 09:34:45;;;;;;;1999.90;999.90;;;18.10;99.90;;;;;;5033141;28;20909;-69
2021/08/30 09:37:17;;;;;;;1999.90;999.90;;;18.00;99.90;;;;;;5033490;28;20414;-70
2021/08/30 09:39:48;;;;;;;1999.90;999.90;;;17.90;99.90;;;;;;5032962;28;20446;-68
2021/08/30 09:42:14;;;;;;;1999.90;999.90;;;17.80;99.90;;;;;;5033592;28;20530;-68
2021/08/30 09:44:41;;;;;;;1999.90;999.90;;;17.90;99.90;;;;;;5033202;28;20452;-68
2021/08/30 09:47:15;;;;;;;1999.90;999.90;;;17.90;99.90;;;;;;5031854;28;20457;-69
2021/08/30 09:49:42;;;;;;;1999.90;999.90;;;18.00;99.90;;;;;;5033927;28;20550;-70
2021/08/30 09:52:08;;;;;;;1999.90;999.90;;;18.10;99.90;;;;;;5033731;28;20414;-69
2021/08/30 09:54:35;;;;;;;1999.90;999.90;;;18.20;99.90;;;;;;5032645;28;20937;-70
2021/08/30 09:57:02;;;;;;;1999.90;999.90;;;18.30;99.90;;;;;;5033612;28;20931;-68
2021/08/30 09:59:30;;;;;;;1999.90;999.90;;;18.50;99.90;;;;;;5033353;28;20460;-70
2021/08/30 10:01:59;;;;;;;1999.90;999.90;;;18.50;99.90;;;;;;5033355;28;20948;-70
2021/08/30 10:04:26;;;;;;;1999.90;999.90;;;18.60;99.90;;;;;;5033434;28;20470;-70
2021/08/30 10:06:53;;;;;;;1999.90;999.90;;;18.60;99.90;;;;;;5033591;28;20503;-68
2021/08/30 10:09:20;;;;;;;1999.90;999.90;;;18.60;99.90;;;;;;5033072;28;20426;-69
2021/08/30 10:11:47;;;;;;;1999.90;999.90;;;18.60;99.90;;;;;;5033564;28;20421;-69
2021/08/30 10:14:17;;;;;;;1999.90;999.90;;;18.70;99.90;;;;;;5033025;28;20415;-68
2021/08/30 10:16:44;;;;;;;1999.90;999.90;;;18.70;99.90;;;;;;5032914;28;20410;-69
2021/08/30 10:19:10;;;;;;;1999.90;999.90;;;18.80;99.90;;;;;;5033106;28;20462;-70
2021/08/30 10:21:44;;;;;;;1999.90;999.90;;;18.80;99.90;;;;;;5033433;28;20407;-70
2021/08/30 10:24:14;;;;;;;1999.90;999.90;;;18.80;99.90;;;;;;5031868;28;20391;-72
2021/08/30 10:26:41;;;;;;;1999.90;999.90;;;18.80;99.90;;;;;;5032674;28;20427;-70
2021/08/30 10:29:07;;;;;;;1999.90;999.90;;;18.90;99.90;;;;;;5033031;28;20432;-69
2021/08/30 10:31:33;;;;;;;1999.90;999.90;;;19.10;99.90;;;;;;5032650;28;20820;-68
2021/08/30 10:33:59;;;;;;;1999.90;999.90;;;19.10;99.90;;;;;;5032139;28;20403;-69
2021/08/30 10:36:27;;;;;;;1999.90;999.90;;;19.20;99.90;;;;;;5032671;28;20186;-68
2021/08/30 10:38:57;;;;;;;1999.90;999.90;;;19.20;99.90;;;;;;5032052;28;20461;-69
2021/08/30 10:41:46;;;;;;;1999.90;999.90;;;19.10;99.90;;;;;;5032813;28;20415;-70
2021/08/30 10:44:14;;;;;;;1999.90;999.90;;;19.20;99.90;;;;;;5032490;28;20485;-69
2021/08/30 10:46:49;;;;;;;1999.90;999.90;;;19.30;99.90;;;;;;5031883;28;20413;-69
2021/08/30 10:49:20;;;;;;;1999.90;999.90;;;19.20;99.90;;;;;;5031983;28;20459;-69
2021/08/30 10:51:47;;;;;;;1999.90;999.90;;;19.10;99.90;;;;;;5031951;28;20987;-69
2021/08/30 10:54:16;;;;;;;1999.90;999.90;;;19.10;99.90;;;;;;5031221;28;20778;-69
2021/08/30 10:56:53;;;;;;;1999.90;999.90;;;19.10;99.90;;;;;;5032064;28;20844;-69
2021/08/30 10:59:27;;;;;;;1999.90;999.90;;;18.90;99.90;;;;;;5031758;28;20458;-69
2021/08/30 11:02:04;;;;;;;1999.90;999.90;;;18.90;99.90;;;;;;5031392;28;20410;-69
2021/08/30 11:04:31;;;;;;;1999.90;999.90;;;18.80;99.90;;;;;;5031457;28;20820;-69
2021/08/30 11:06:57;;;;;;;1999.90;999.90;;;18.90;99.90;;;;;;5031983;28;20413;-69
2021/08/30 11:09:22;;;;;;;1999.90;999.90;;;18.90;99.90;;;;;;5031475;28;21163;-70
2021/08/30 11:11:50;;;;;;;1999.90;999.90;;;18.90;99.90;;;;;;5032097;28;20171;-69
2021/08/30 11:14:15;;;;;;;1999.90;999.90;;;18.80;99.90;;;;;;5031722;28;20213;-69
2021/08/30 11:16:42;;;;;;;1999.90;999.90;;;18.70;99.90;;;;;;5031297;28;20899;-69
2021/08/30 11:19:14;;;;;;;1999.90;999.90;;;18.70;99.90;;;;;;5030820;28;20216;-69
2021/08/30 11:21:46;;;;;;;1999.90;999.90;;;18.70;99.90;;;;;;5031150;28;20412;-69
2021/08/30 11:24:40;;;;;;;1999.90;999.90;;;18.70;99.90;;;;;;5030177;28;20393;-69
2021/08/30 11:27:08;;;;;;;1999.90;999.90;;;18.70;99.90;;;;;;5030802;28;20486;-69
2021/08/30 11:29:39;;;;;;;1999.90;999.90;;;18.70;99.90;;;;;;5030683;28;20470;-69
2021/08/30 11:32:05;;;;;;;1999.90;999.90;;;18.80;99.90;;;;;;5030400;28;20938;-69
2021/08/30 11:34:34;;;;;;;1999.90;999.90;;;18.70;99.90;;;;;;5030151;28;20504;-69
2021/08/30 11:37:01;;;;;;;1999.90;999.90;;;18.60;99.90;;;;;;5030747;28;20172;-69
2021/08/30 11:39:29;;;;;;;1999.90;999.90;;;18.60;99.90;;;;;;5029952;28;20976;-69
2021/08/30 11:41:58;;;;;;;1999.90;999.90;;;18.60;99.90;;;;;;5030565;28;20422;-69
2021/08/30 11:44:25;;;;;;;1999.90;999.90;;;18.60;99.90;;;;;;5030281;28;20415;-69
2021/08/30 11:46:56;;;;;;;1999.90;999.90;;;18.60;99.90;;;;;;5030101;28;20406;-69
2021/08/30 11:49:27;;;;;;;1999.90;999.90;;;18.50;99.90;;;;;;5030472;28;20426;-69
2021/08/30 11:51:56;;;;;;;1999.90;999.90;;;18.50;99.90;;;;;;5030359;28;20461;-69
2021/08/30 11:54:30;;;;;;;1999.90;999.90;;;18.50;99.90;;;;;;5029720;28;21085;-69
2021/08/30 11:57:03;;;;;;;1999.90;999.90;;;18.50;99.90;;;;;;5030537;28;20394;-69
2021/08/30 11:59:40;;;;;;;1999.90;999.90;;;18.50;99.90;;;;;;5030168;28;20461;-69
2021/08/30 12:02:08;;;;;;;1999.90;999.90;;;18.50;99.90;;;;;;5030223;28;20962;-69
2021/08/30 12:04:36;;;;;;;1999.90;999.90;;;18.60;99.90;;;;;;5029848;28;20415;-69
2021/08/30 12:07:04;;;;;;;1999.90;999.90;;;18.60;99.90;;;;;;5030487;28;20407;-69
2021/08/30 12:09:41;;;;;;;1999.90;999.90;;;18.70;99.90;;;;;;5030093;28;20433;-69
2021/08/30 12:12:29;;;;;;;1999.90;999.90;;;18.90;99.90;;;;;;5030369;28;20887;-69
2021/08/30 12:15:00;;;;;;;1999.90;999.90;;;19.00;99.90;;;;;;5029218;28;20495;-69
2021/08/30 12:17:28;;;;;;;1999.90;999.90;;;19.20;99.90;;;;;;4991765;28;1099816;-69
2021/08/30 12:19:57;;;;;;;1999.90;999.90;;;19.50;99.90;;;;;;5031497;28;20443;-68
2021/08/30 12:22:28;;;;;;;1999.90;999.90;;;19.60;99.90;;;;;;5031126;28;20374;-69